createdAt,value
2023-04-19T00:01:06.226Z,20.44
2023-04-19T00:03:33.752Z,20.41
2023-04-19T00:06:01.175Z,20.45
2023-04-19T00:08:28.433Z,20.42
2023-04-19T00:10:55.616Z,20.41
2023-04-19T00:13:22.924Z,20.40
2023-04-19T00:15:50.363Z,20.41
2023-04-19T00:18:17.580Z,20.41
2023-04-19T00:20:45.484Z,20.41
2023-04-19T00:23:12.700Z,20.41
2023-04-19T00:25:39.896Z,20.40
2023-04-19T00:28:07.062Z,20.40
2023-04-19T00:30:34.472Z,20.40
2023-04-19T00:33:01.751Z,20.38
2023-04-19T00:35:29.236Z,20.37
2023-04-19T00:37:56.441Z,20.37
2023-04-19T00:40:23.671Z,20.38
2023-04-19T00:42:50.831Z,20.37
2023-04-19T00:45:18.042Z,20.36
2023-04-19T00:47:45.302Z,20.38
2023-04-19T00:50:13.400Z,20.40
2023-04-19T00:52:41.145Z,20.38
2023-04-19T00:55:08.791Z,20.40
2023-04-19T00:57:36.498Z,20.35
2023-04-19T01:00:06.702Z,20.35
2023-04-19T01:02:34.019Z,20.35
2023-04-19T01:05:10.417Z,20.38
2023-04-19T01:07:37.668Z,20.36
2023-04-19T01:10:05.973Z,20.36
2023-04-19T01:12:33.267Z,20.34
2023-04-19T01:15:01.472Z,20.34
2023-04-19T01:17:30.159Z,20.34
2023-04-19T01:20:06.519Z,20.31
2023-04-19T01:22:34.160Z,20.35
2023-04-19T01:25:01.706Z,20.35
2023-04-19T01:27:28.987Z,20.33
2023-04-19T01:29:56.304Z,20.35
2023-04-19T01:32:23.604Z,20.30
2023-04-19T01:34:52.098Z,20.34
2023-04-19T01:37:19.296Z,20.34
2023-04-19T01:39:46.490Z,20.32
2023-04-19T01:42:13.807Z,20.33
2023-04-19T01:44:40.984Z,20.31
2023-04-19T01:47:08.363Z,20.30
2023-04-19T01:49:35.722Z,20.32
2023-04-19T01:52:03.009Z,20.31
2023-04-19T01:54:30.242Z,20.27
2023-04-19T01:56:57.405Z,20.31
2023-04-19T01:59:24.677Z,20.29
2023-04-19T02:01:51.974Z,20.28
2023-04-19T02:04:21.768Z,20.25
2023-04-19T02:06:49.106Z,20.28
2023-04-19T02:09:16.325Z,20.28
2023-04-19T02:11:43.502Z,20.27
2023-04-19T02:14:10.771Z,20.27
2023-04-19T02:16:38.046Z,20.25
2023-04-19T02:19:05.351Z,20.25
2023-04-19T02:21:32.576Z,20.28
2023-04-19T02:23:59.732Z,20.25
2023-04-19T02:26:26.999Z,20.23
2023-04-19T02:28:54.338Z,20.20
2023-04-19T02:31:21.788Z,20.23
2023-04-19T02:33:49.054Z,20.21
2023-04-19T02:36:16.295Z,20.21
2023-04-19T02:38:43.519Z,20.21
2023-04-19T02:41:10.807Z,20.19
2023-04-19T02:43:37.998Z,20.20
2023-04-19T02:46:05.348Z,20.21
2023-04-19T02:48:32.664Z,20.15
2023-04-19T02:50:59.906Z,20.22
2023-04-19T02:53:27.102Z,20.20
2023-04-19T02:55:54.330Z,20.21
2023-04-19T02:58:21.502Z,20.16
2023-04-19T03:00:48.708Z,20.18
2023-04-19T03:03:16.079Z,20.16
2023-04-19T03:05:43.313Z,20.18
2023-04-19T03:08:11.203Z,20.14
2023-04-19T03:10:38.531Z,20.15
2023-04-19T03:13:05.721Z,20.14
2023-04-19T03:15:32.920Z,20.15
2023-04-19T03:18:00.203Z,20.13
2023-04-19T03:20:27.420Z,20.12
2023-04-19T03:22:54.643Z,20.15
2023-04-19T03:25:21.974Z,20.13
2023-04-19T03:27:49.611Z,20.14
2023-04-19T03:30:16.798Z,20.11
2023-04-19T03:32:44.101Z,20.10
2023-04-19T03:35:11.391Z,20.12
2023-04-19T03:37:38.576Z,20.12
2023-04-19T03:40:06.673Z,20.09
2023-04-19T03:42:33.838Z,20.08
2023-04-19T03:45:06.511Z,20.08
2023-04-19T03:47:34.269Z,20.07
2023-04-19T03:50:02.506Z,20.08
2023-04-19T03:52:29.720Z,20.08
2023-04-19T03:54:56.884Z,20.07
2023-04-19T03:57:24.118Z,20.08
2023-04-19T03:59:51.365Z,20.10
2023-04-19T04:02:19.101Z,20.08
2023-04-19T04:04:46.616Z,20.07
2023-04-19T04:07:13.988Z,20.06
2023-04-19T04:09:41.185Z,20.04
2023-04-19T04:12:08.453Z,20.07
2023-04-19T04:14:35.845Z,19.97
2023-04-19T04:17:03.133Z,20.01
2023-04-19T04:19:30.514Z,19.99
2023-04-19T04:21:57.761Z,20.04
2023-04-19T04:24:24.984Z,20.02
2023-04-19T04:26:52.141Z,20.03
2023-04-19T04:29:19.313Z,20.02
2023-04-19T04:31:46.627Z,20.03
2023-04-19T04:34:14.360Z,20.03
2023-04-19T04:36:42.025Z,20.02
2023-04-19T04:39:11.881Z,20.02
2023-04-19T04:41:42.099Z,20.05
2023-04-19T04:44:12.720Z,20.05
2023-04-19T04:46:40.323Z,20.06
2023-04-19T04:49:07.539Z,20.04
2023-04-19T04:51:36.207Z,20.07
2023-04-19T04:54:05.170Z,20.21
2023-04-19T04:56:32.640Z,20.27
2023-04-19T04:58:59.853Z,20.44
2023-04-19T05:01:27.143Z,20.47
2023-04-19T05:03:54.459Z,20.42
2023-04-19T05:06:21.663Z,20.31
2023-04-19T05:08:48.849Z,20.29
2023-04-19T05:11:16.439Z,20.34
2023-04-19T05:13:46.030Z,20.46
2023-04-19T05:16:13.337Z,20.52
2023-04-19T05:18:40.696Z,20.54
2023-04-19T05:21:10.427Z,20.47
2023-04-19T05:23:38.691Z,20.51
2023-04-19T05:26:05.994Z,20.54
2023-04-19T05:28:33.535Z,20.54
2023-04-19T05:31:00.927Z,20.56
2023-04-19T05:33:28.187Z,20.53
2023-04-19T05:35:55.351Z,20.52
2023-04-19T05:38:22.874Z,20.47
2023-04-19T05:40:50.125Z,20.43
2023-04-19T05:43:17.311Z,20.35
2023-04-19T05:45:44.507Z,20.29
2023-04-19T05:48:11.720Z,20.34
2023-04-19T05:50:39.089Z,20.38
2023-04-19T05:53:06.282Z,20.38
2023-04-19T05:55:33.497Z,20.42
2023-04-19T05:58:00.864Z,20.47
2023-04-19T06:00:28.449Z,20.47
2023-04-19T06:02:55.768Z,20.39
2023-04-19T06:05:23.497Z,20.37
2023-04-19T06:07:55.483Z,20.40
2023-04-19T06:10:40.368Z,20.53
2023-04-19T06:13:16.553Z,20.52
2023-04-19T06:15:43.763Z,20.52
2023-04-19T06:18:19.556Z,20.49
2023-04-19T06:20:47.337Z,20.38
2023-04-19T06:23:15.294Z,20.25
2023-04-19T06:25:42.792Z,20.22
2023-04-19T06:28:12.145Z,20.23
2023-04-19T06:30:39.332Z,20.20
2023-04-19T06:33:06.486Z,20.38
2023-04-19T06:35:34.020Z,20.54
2023-04-19T06:38:01.304Z,20.65
2023-04-19T06:40:34.476Z,20.70
2023-04-19T06:43:01.767Z,20.72
2023-04-19T06:45:29.128Z,20.79
2023-04-19T06:47:56.532Z,20.85
2023-04-19T06:50:23.829Z,20.89
2023-04-19T06:52:51.054Z,20.97
2023-04-19T06:55:23.624Z,21.02
2023-04-19T06:57:50.816Z,21.02
2023-04-19T07:00:18.333Z,21.04
2023-04-19T07:02:45.772Z,21.05
2023-04-19T07:05:13.448Z,21.07
2023-04-19T07:07:41.328Z,21.10
2023-04-19T07:10:09.649Z,21.11
2023-04-19T07:12:39.818Z,21.13
2023-04-19T07:15:07.473Z,21.13
2023-04-19T07:17:36.214Z,21.15
2023-04-19T07:20:05.771Z,21.13
2023-04-19T07:22:33.565Z,21.15
2023-04-19T07:25:00.849Z,21.16
2023-04-19T07:27:28.153Z,21.17
2023-04-19T07:29:55.362Z,21.20
2023-04-19T07:32:22.649Z,21.17
2023-04-19T07:34:51.559Z,21.18
2023-04-19T07:37:18.837Z,21.20
2023-04-19T07:39:46.037Z,21.20
2023-04-19T07:42:13.268Z,21.19
2023-04-19T07:44:40.493Z,21.20
2023-04-19T07:47:07.725Z,21.20
2023-04-19T07:49:35.168Z,21.22
2023-04-19T07:52:03.019Z,21.23
2023-04-19T07:54:31.310Z,21.21
2023-04-19T07:56:59.083Z,21.21
2023-04-19T07:59:26.626Z,21.22
2023-04-19T08:01:54.007Z,21.23
2023-04-19T08:04:22.998Z,21.20
2023-04-19T08:06:53.372Z,21.18
2023-04-19T08:09:20.638Z,21.18
2023-04-19T08:11:47.934Z,21.20
2023-04-19T08:14:26.831Z,21.18
2023-04-19T08:17:22.116Z,21.15
2023-04-19T08:19:45.745Z,21.14
2023-04-19T08:22:13.018Z,21.13
2023-04-19T08:24:40.191Z,21.13
2023-04-19T08:27:07.383Z,21.15
2023-04-19T08:29:34.760Z,21.13
2023-04-19T08:32:02.093Z,21.13
2023-04-19T08:34:29.592Z,21.11
2023-04-19T08:37:04.029Z,21.11
2023-04-19T08:39:34.184Z,21.11
2023-04-19T08:42:11.098Z,21.10
2023-04-19T08:45:09.532Z,21.10
2023-04-19T08:50:20.571Z,21.12
2023-04-19T08:53:02.786Z,21.10
2023-04-19T08:55:47.328Z,21.09
2023-04-19T08:58:30.794Z,21.10
2023-04-19T09:01:12.859Z,21.10
2023-04-19T09:03:59.390Z,21.11
2023-04-19T09:06:31.323Z,21.13
2023-04-19T09:11:52.008Z,21.12
2023-04-19T09:14:21.053Z,21.12
2023-04-19T09:16:48.253Z,21.13
2023-04-19T09:19:24.255Z,21.12
2023-04-19T09:21:54.887Z,21.10
2023-04-19T09:25:13.904Z,21.09
2023-04-19T09:27:31.363Z,21.10
2023-04-19T09:30:00.632Z,21.12
2023-04-19T09:32:29.073Z,21.10
2023-04-19T09:34:58.582Z,21.10
2023-04-19T09:37:51.561Z,21.10
2023-04-19T09:40:25.886Z,21.10
2023-04-19T09:48:10.054Z,21.13
2023-04-19T09:51:00.242Z,21.15
2023-04-19T09:53:37.150Z,21.17
2023-04-19T09:56:06.129Z,21.16
2023-04-19T10:01:14.386Z,21.14
2023-04-19T10:03:47.675Z,21.11
2023-04-19T10:06:40.032Z,21.15
2023-04-19T10:09:11.565Z,21.15
2023-04-19T10:11:39.254Z,21.15
2023-04-19T10:14:09.174Z,21.12
2023-04-19T10:16:37.680Z,21.13
2023-04-19T10:19:09.909Z,21.14
2023-04-19T10:21:38.222Z,21.15
2023-04-19T10:24:05.973Z,21.13
2023-04-19T10:27:11.420Z,21.12
2023-04-19T10:29:58.206Z,21.10
2023-04-19T10:32:30.658Z,21.10
2023-04-19T10:35:07.972Z,21.11
2023-04-19T10:37:35.214Z,21.13
2023-04-19T10:40:02.533Z,21.11
2023-04-19T10:43:11.373Z,21.12
2023-04-19T10:45:38.805Z,21.11
2023-04-19T10:48:06.125Z,21.13
2023-04-19T10:51:03.381Z,21.12
2023-04-19T10:53:49.501Z,21.10
2023-04-19T10:56:21.859Z,21.10
2023-04-19T10:59:13.079Z,21.14
2023-04-19T11:01:48.385Z,21.14
2023-04-19T11:04:16.367Z,21.10
2023-04-19T11:06:52.774Z,21.11
2023-04-19T11:09:27.269Z,21.10
2023-04-19T11:11:58.080Z,21.09
2023-04-19T11:14:26.368Z,21.12
2023-04-19T11:16:53.705Z,21.08
2023-04-19T11:19:20.948Z,21.05
2023-04-19T11:21:48.733Z,20.94
2023-04-19T11:24:18.756Z,20.77
2023-04-19T11:26:47.282Z,20.71
2023-04-19T11:29:15.098Z,20.72
2023-04-19T11:31:47.734Z,20.73
2023-04-19T11:34:15.374Z,20.66
2023-04-19T11:36:52.577Z,20.53
2023-04-19T11:39:19.890Z,20.60
2023-04-19T11:41:49.759Z,20.70
2023-04-19T11:44:20.525Z,20.75
2023-04-19T11:47:05.384Z,20.76
2023-04-19T11:49:33.957Z,20.85
2023-04-19T11:52:05.545Z,20.82
2023-04-19T11:54:33.710Z,20.82
2023-04-19T11:57:03.455Z,20.84
2023-04-19T11:59:32.233Z,20.84
2023-04-19T12:02:12.540Z,20.83
2023-04-19T12:04:43.419Z,20.81
2023-04-19T12:07:11.174Z,20.84
2023-04-19T12:09:39.918Z,20.78
2023-04-19T12:12:07.148Z,20.80
2023-04-19T12:14:34.364Z,20.79
2023-04-19T12:17:14.423Z,20.82
2023-04-19T12:19:48.136Z,20.83
2023-04-19T12:22:24.146Z,20.85
2023-04-19T12:24:55.975Z,20.84
2023-04-19T12:27:25.725Z,20.83
2023-04-19T12:29:53.022Z,20.83
2023-04-19T12:32:20.688Z,20.84
2023-04-19T12:34:47.978Z,20.85
2023-04-19T12:37:15.185Z,20.86
2023-04-19T12:39:42.422Z,20.84
2023-04-19T12:42:09.593Z,20.84
2023-04-19T12:44:36.817Z,20.84
2023-04-19T12:47:04.059Z,20.87
2023-04-19T12:49:31.706Z,20.88
2023-04-19T12:51:58.974Z,20.87
2023-04-19T12:54:26.204Z,20.87
2023-04-19T12:56:53.908Z,20.86
2023-04-19T12:59:22.112Z,20.87
2023-04-19T13:01:49.747Z,20.89
2023-04-19T13:04:17.431Z,20.88
2023-04-19T13:06:45.588Z,20.91
2023-04-19T13:09:14.988Z,20.90
2023-04-19T13:11:42.602Z,20.90
2023-04-19T13:14:09.879Z,20.92
2023-04-19T13:16:38.568Z,20.92
2023-04-19T13:19:06.181Z,20.91
2023-04-19T13:21:33.411Z,20.88
2023-04-19T13:24:00.602Z,20.93
2023-04-19T13:26:27.906Z,20.90
2023-04-19T13:28:55.139Z,20.90
2023-04-19T13:31:22.366Z,20.95
2023-04-19T13:33:49.573Z,20.99
2023-04-19T13:36:16.879Z,21.05
2023-04-19T13:38:44.206Z,21.07
2023-04-19T13:41:11.646Z,21.06
2023-04-19T13:43:39.033Z,21.11
2023-04-19T13:46:06.605Z,21.09
2023-04-19T13:48:33.856Z,21.13
2023-04-19T13:51:01.093Z,21.14
2023-04-19T13:53:29.274Z,21.07
2023-04-19T13:55:56.766Z,21.07
2023-04-19T13:58:26.969Z,21.10
2023-04-19T14:00:54.642Z,21.11
2023-04-19T14:03:23.244Z,21.11
2023-04-19T14:05:50.891Z,21.09
2023-04-19T14:08:18.272Z,21.09
2023-04-19T14:10:45.780Z,21.08
2023-04-19T14:13:13.167Z,21.09
2023-04-19T14:15:40.535Z,21.10
2023-04-19T14:18:07.879Z,21.08
2023-04-19T14:20:35.389Z,21.06
2023-04-19T14:23:02.834Z,21.08
2023-04-19T14:25:30.146Z,21.09
2023-04-19T14:27:57.686Z,21.08
2023-04-19T14:30:27.204Z,21.06
2023-04-19T14:32:55.163Z,21.06
2023-04-19T14:35:22.492Z,21.07
2023-04-19T14:37:49.780Z,21.08
2023-04-19T14:40:18.039Z,21.07
2023-04-19T14:42:45.318Z,21.07
2023-04-19T14:45:12.544Z,21.07
2023-04-19T14:47:39.777Z,21.07
2023-04-19T14:50:07.585Z,21.08
2023-04-19T14:52:34.865Z,21.06
2023-04-19T14:55:02.206Z,21.11
2023-04-19T14:57:29.526Z,21.10
2023-04-19T14:59:57.954Z,21.12
2023-04-19T15:02:55.971Z,21.14
2023-04-19T15:05:25.544Z,21.14
2023-04-19T15:07:53.046Z,21.12
2023-04-19T15:10:20.320Z,21.14
2023-04-19T15:12:47.507Z,21.11
2023-04-19T15:15:14.769Z,21.14
2023-04-19T15:17:42.696Z,21.08
2023-04-19T15:20:10.084Z,21.05
2023-04-19T15:22:37.646Z,21.05
2023-04-19T15:25:05.108Z,21.05
2023-04-19T15:27:32.444Z,21.04
2023-04-19T15:29:59.712Z,21.04
2023-04-19T15:32:27.475Z,21.04
2023-04-19T15:34:54.884Z,21.02
2023-04-19T15:37:22.074Z,21.02
2023-04-19T15:39:50.260Z,21.03
2023-04-19T15:42:17.567Z,21.01
2023-04-19T15:44:45.115Z,21.01
2023-04-19T15:47:12.580Z,21.01
2023-04-19T15:49:40.637Z,21.01
2023-04-19T15:52:08.898Z,21.03
2023-04-19T15:54:37.719Z,21.07
2023-04-19T15:57:05.080Z,21.10
2023-04-19T15:59:32.609Z,21.05
2023-04-19T16:02:00.120Z,21.04
2023-04-19T16:04:27.557Z,21.06
2023-04-19T16:06:55.659Z,21.07
2023-04-19T16:09:23.007Z,21.05
2023-04-19T16:11:50.809Z,21.08
2023-04-19T16:14:18.248Z,21.07
2023-04-19T16:16:45.738Z,21.06
2023-04-19T16:19:13.151Z,21.06
2023-04-19T16:21:40.604Z,21.07
2023-04-19T16:24:08.162Z,21.04
2023-04-19T16:26:35.741Z,21.07
2023-04-19T16:29:03.067Z,21.06
2023-04-19T16:31:30.786Z,21.06
2023-04-19T16:33:58.278Z,21.05
2023-04-19T16:36:25.738Z,21.05
2023-04-19T16:38:53.234Z,21.05
2023-04-19T16:41:20.707Z,21.04
2023-04-19T16:43:47.947Z,21.05
2023-04-19T16:46:15.414Z,21.03
2023-04-19T16:48:42.955Z,21.03
2023-04-19T16:51:10.112Z,21.05
2023-04-19T16:53:37.350Z,21.06
2023-04-19T16:56:04.658Z,21.04
2023-04-19T16:58:31.994Z,21.02
2023-04-19T17:00:59.210Z,21.02
2023-04-19T17:03:28.464Z,21.01
2023-04-19T17:05:56.347Z,21.04
2023-04-19T17:08:23.722Z,21.07
2023-04-19T17:10:51.007Z,21.05
2023-04-19T17:13:18.589Z,21.03
2023-04-19T17:15:46.048Z,21.05
2023-04-19T17:18:13.400Z,21.07
2023-04-19T17:20:40.770Z,21.08
2023-04-19T17:23:08.023Z,21.07
2023-04-19T17:25:35.262Z,21.08
2023-04-19T17:28:02.664Z,21.08
2023-04-19T17:30:30.086Z,21.08
2023-04-19T17:32:57.570Z,21.08
2023-04-19T17:35:26.163Z,21.08
2023-04-19T17:37:53.399Z,21.08
2023-04-19T17:40:20.876Z,21.09
2023-04-19T17:42:48.050Z,21.07
2023-04-19T17:45:16.506Z,21.06
2023-04-19T17:47:44.376Z,21.08
2023-04-19T17:50:13.070Z,21.09
2023-04-19T17:52:40.802Z,21.09
2023-04-19T17:55:08.614Z,21.08
2023-04-19T17:57:35.886Z,21.08
2023-04-19T18:00:06.864Z,21.07
2023-04-19T18:02:35.048Z,21.09
2023-04-19T18:05:02.745Z,21.09
2023-04-19T18:07:30.216Z,21.05
2023-04-19T18:09:57.428Z,21.04
2023-04-19T18:12:24.930Z,21.05
2023-04-19T18:14:52.176Z,21.02
2023-04-19T18:17:19.557Z,21.00
2023-04-19T18:19:47.042Z,21.03
2023-04-19T18:22:14.680Z,21.01
2023-04-19T18:24:43.724Z,20.99
2023-04-19T18:27:10.944Z,21.01
2023-04-19T18:29:38.401Z,20.99
2023-04-19T18:32:06.267Z,20.97
2023-04-19T18:34:33.496Z,20.97
2023-04-19T18:37:02.834Z,20.96
2023-04-19T18:39:30.029Z,20.94
2023-04-19T18:41:58.236Z,20.96
2023-04-19T18:44:49.509Z,20.96
2023-04-19T18:47:13.055Z,20.96
2023-04-19T18:49:40.461Z,20.96
2023-04-19T18:52:07.857Z,20.94
2023-04-19T18:54:35.200Z,20.94
2023-04-19T18:57:19.065Z,20.95
2023-04-19T18:59:49.412Z,20.93
2023-04-19T19:02:16.853Z,20.96
2023-04-19T19:07:34.132Z,20.97
2023-04-19T19:10:18.398Z,20.97
2023-04-19T19:12:48.759Z,20.95
2023-04-19T19:15:16.372Z,20.99
2023-04-19T19:17:48.555Z,21.01
2023-04-19T19:20:16.970Z,21.02
2023-04-19T19:22:45.427Z,21.00
2023-04-19T19:25:13.258Z,21.00
2023-04-19T19:27:40.666Z,21.02
2023-04-19T19:30:08.794Z,21.00
2023-04-19T19:32:36.197Z,20.96
2023-04-19T19:35:06.405Z,21.00
2023-04-19T19:37:36.841Z,20.99
2023-04-19T19:40:10.768Z,20.97
2023-04-19T19:42:41.657Z,20.99
2023-04-19T19:45:09.483Z,20.97
2023-04-19T19:47:43.154Z,20.93
2023-04-19T19:51:01.035Z,20.92
2023-04-19T19:53:01.521Z,20.94
2023-04-19T19:55:30.087Z,20.92
2023-04-19T20:02:59.027Z,20.94
2023-04-19T20:05:27.532Z,20.91
2023-04-19T20:08:10.181Z,20.85
2023-04-19T20:10:39.341Z,20.86
2023-04-19T20:13:06.748Z,20.89
2023-04-19T20:15:37.819Z,20.92
2023-04-19T20:18:05.620Z,20.85
2023-04-19T20:20:33.105Z,20.73
2023-04-19T20:23:00.657Z,20.83
2023-04-19T20:25:28.103Z,20.81
2023-04-19T20:27:56.512Z,20.85
2023-04-19T20:30:23.890Z,20.86
2023-04-19T20:32:51.316Z,20.89
2023-04-19T20:35:19.026Z,20.92
2023-04-19T20:37:47.460Z,20.89
2023-04-19T20:40:16.265Z,20.90
2023-04-19T20:42:44.806Z,20.91
2023-04-19T20:45:14.147Z,20.90
2023-04-19T20:47:42.357Z,20.89
2023-04-19T20:50:10.446Z,20.91
2023-04-19T20:52:37.793Z,20.90
2023-04-19T20:55:05.554Z,20.89
2023-04-19T20:57:32.968Z,20.88
2023-04-19T21:00:00.701Z,20.88
2023-04-19T21:02:28.618Z,20.90
2023-04-19T21:04:56.009Z,20.89
2023-04-19T21:07:23.416Z,20.83
2023-04-19T21:09:50.841Z,20.85
2023-04-19T21:12:18.519Z,20.83
2023-04-19T21:14:49.284Z,20.78
2023-04-19T21:17:16.928Z,20.77
2023-04-19T21:19:44.173Z,20.77
2023-04-19T21:22:11.857Z,20.77
2023-04-19T21:24:39.357Z,20.79
2023-04-19T21:27:07.700Z,20.79
2023-04-19T21:29:35.201Z,20.78
2023-04-19T21:32:02.858Z,20.79
2023-04-19T21:34:31.020Z,20.79
2023-04-19T21:36:58.238Z,20.81
2023-04-19T21:39:25.593Z,20.82
2023-04-19T21:41:52.796Z,20.80
2023-04-19T21:44:20.513Z,20.85
2023-04-19T21:46:48.525Z,20.82
2023-04-19T21:49:15.911Z,20.79
2023-04-19T21:51:43.558Z,20.79
2023-04-19T21:54:12.800Z,20.80
2023-04-19T21:56:45.090Z,20.77
2023-04-19T21:59:15.339Z,20.80
2023-04-19T22:01:42.927Z,20.81
2023-04-19T22:04:11.957Z,20.80
2023-04-19T22:06:39.345Z,20.81
2023-04-19T22:09:06.521Z,20.79
2023-04-19T22:11:36.459Z,20.80
2023-04-19T22:14:03.880Z,20.79
2023-04-19T22:16:32.713Z,20.78
2023-04-19T22:19:01.284Z,20.77
2023-04-19T22:21:28.644Z,20.75
2023-04-19T22:23:55.837Z,20.75
2023-04-19T22:26:23.118Z,20.78
2023-04-19T22:28:50.764Z,20.78
2023-04-19T22:31:18.237Z,20.79
2023-04-19T22:33:46.108Z,20.76
2023-04-19T22:36:13.496Z,20.76
2023-04-19T22:38:40.694Z,20.77
2023-04-19T22:41:07.901Z,20.77
2023-04-19T22:43:35.193Z,20.81
2023-04-19T22:46:02.412Z,20.77
2023-04-19T22:48:30.237Z,20.74
2023-04-19T22:50:57.423Z,20.80
2023-04-19T22:53:24.790Z,20.72
2023-04-19T22:55:52.485Z,20.80
2023-04-19T22:58:20.112Z,20.79
2023-04-19T23:00:47.375Z,20.82
2023-04-19T23:03:14.612Z,20.80
2023-04-19T23:05:41.886Z,20.81
2023-04-19T23:08:09.400Z,20.76
2023-04-19T23:10:39.640Z,20.79
2023-04-19T23:13:06.829Z,20.75
2023-04-19T23:15:34.413Z,20.74
2023-04-19T23:18:02.295Z,20.74
2023-04-19T23:20:30.236Z,20.75
2023-04-19T23:22:57.832Z,20.74
2023-04-19T23:25:25.595Z,20.74
2023-04-19T23:27:52.942Z,20.75
2023-04-19T23:30:20.621Z,20.74
2023-04-19T23:32:47.898Z,20.74
2023-04-19T23:35:15.285Z,20.72
2023-04-19T23:37:42.507Z,20.71
2023-04-19T23:40:10.384Z,20.73
2023-04-19T23:42:38.424Z,20.71
2023-04-19T23:45:06.666Z,20.71
2023-04-19T23:47:34.237Z,20.71
2023-04-19T23:50:01.699Z,20.69
2023-04-19T23:52:28.940Z,20.72
2023-04-19T23:54:56.092Z,20.72
2023-04-19T23:57:23.358Z,20.74
2023-04-19T23:59:50.856Z,20.73
